HEBA/HBE METAR and TAF weather

Enter ICAO airport designator
Station Type Date Time Source
HEBA METAR 2018/01/22 20:00 UTC NOAA

HEBA 222000Z 27010KT 9999 SCT020 17/10 Q1010 NOSIG


Station Type Date Time Source
HEBA Decoded METAR 2018/01/22 20:00 UTC NOAA

Alexandria Borg El Arab, Egypt (HEBA) 31-31N 030-10E
Jan 22, 2018 - 03:00 PM EST / 2018.01.22 2000 UTC
Wind: from the W (270 degrees) at 12 MPH (10 KT):0
Visibility: greater than 7 mile(s):0
Sky conditions: partly cloudy
Temperature: 62 F (17 C)
Dew Point: 50 F (10 C)
Relative Humidity: 63%
Pressure (altimeter): 29.83 in. Hg (1010 hPa)
ob: HEBA 222000Z 27010KT 9999 SCT020 17/10 Q1010 NOSIG
cycle: 20

Station Type Date Time Source
HEBA TAF 2018/01/22 18:03 UTC NOAA

TAF HEBA 221700Z 2218/2324 24010G20KT 6000 NSC
TEMPO 2218/2303 7000 -RA BKN020 PROB40
TEMPO 2218/2224 3000 -SA


Example: see airport list